Schley, Minnesota
Current Conditions -  °F | °C
As of 3:35 AM on Tuesday 21 Oct 2014 (Local Time) from KY49 Reporting Station
Clear Clear  
Wind Chill: 37°   Ceiling: Unl
Heat Index: 37°   Visibility: 10mi
Dew Point: 35°   Wind: 3mph
Humidity: 91%   Direction: 130°SE
Pressure: 30.13"   Gusts: NA
Location:  47.3012°N, 94.5426°W
Report Text: KY49 210835Z AUTO 13003KT 10SM CLR 03/02 A3013 RMK AO2 T00300017
Loading
Personal Weather Stations






























Interactive Weather Map
Tropical Storm Tracking
New forecast layout! Learn more

10-Day Weather Forecast

Advertisements
Track Severe Weather on mobile